Hackleburg, Alabama
Current Conditions -  °F | °C
As of 5:56 PM on Friday 19 Dec 2014 (Local Time) from K1M4 Reporting Station
Light Rain Light Rain  
Wind Chill: 38°   Ceiling: Unl
Heat Index: 38°   Visibility: 10mi
Dew Point: 32°   Wind: 0mph
Humidity: 79%   Direction: NA
Pressure: 30.19"   Gusts: NA
Location:  34.28°N, 87.83°W
Report Text: K1M4 192356Z AUTO 00000KT 10SM -RA CLR 03/00 A3019 RMK AO2 58004 60000 T00330000 10055 20033 RAB34 P0000 SLP232 $
Loading
Personal Weather Stations






























Interactive Weather Map New forecast layout! Learn more

10-Day Weather Forecast

Advertisements
Track Severe Weather on mobile